sensor_id;sensor_type;location;lat;lon;timestamp;temperature;humidity
5011;DHT22;2524;54.364;10.072;2023-03-25T00:01:09;10.00;99.90
5011;DHT22;2524;54.364;10.072;2023-03-25T00:03:38;10.00;99.90
5011;DHT22;2524;54.364;10.072;2023-03-25T00:06:09;10.00;99.90
5011;DHT22;2524;54.364;10.072;2023-03-25T00:08:35;10.10;99.90
5011;DHT22;2524;54.364;10.072;2023-03-25T00:11:03;10.00;99.90
5011;DHT22;2524;54.364;10.072;2023-03-25T00:13:30;9.90;99.90
5011;DHT22;2524;54.364;10.072;2023-03-25T00:15:59;9.90;99.90
5011;DHT22;2524;54.364;10.072;2023-03-25T00:18:28;10.00;99.90
5011;DHT22;2524;54.364;10.072;2023-03-25T00:20:54;9.90;99.90
5011;DHT22;2524;54.364;10.072;2023-03-25T00:23:21;9.90;99.90
5011;DHT22;2524;54.364;10.072;2023-03-25T00:25:47;9.80;99.90
5011;DHT22;2524;54.364;10.072;2023-03-25T00:28:15;9.90;99.90
5011;DHT22;2524;54.364;10.072;2023-03-25T00:30:42;9.90;99.90
5011;DHT22;2524;54.364;10.072;2023-03-25T00:33:07;9.90;99.90
5011;DHT22;2524;54.364;10.072;2023-03-25T00:35:41;9.80;99.90
5011;DHT22;2524;54.364;10.072;2023-03-25T00:38:10;9.80;99.90
5011;DHT22;2524;54.364;10.072;2023-03-25T00:40:36;9.80;99.90
5011;DHT22;2524;54.364;10.072;2023-03-25T00:43:03;9.90;99.90
5011;DHT22;2524;54.364;10.072;2023-03-25T00:45:29;9.80;99.90
5011;DHT22;2524;54.364;10.072;2023-03-25T00:47:55;9.90;99.90
5011;DHT22;2524;54.364;10.072;2023-03-25T00:50:21;9.90;99.90
5011;DHT22;2524;54.364;10.072;2023-03-25T00:52:47;9.80;99.90
5011;DHT22;2524;54.364;10.072;2023-03-25T00:55:13;9.90;99.90
5011;DHT22;2524;54.364;10.072;2023-03-25T00:57:39;10.10;99.90
5011;DHT22;2524;54.364;10.072;2023-03-25T01:00:07;10.00;99.90
5011;DHT22;2524;54.364;10.072;2023-03-25T01:02:33;9.90;99.90
5011;DHT22;2524;54.364;10.072;2023-03-25T01:05:00;9.90;99.90
5011;DHT22;2524;54.364;10.072;2023-03-25T01:07:26;9.90;99.90
5011;DHT22;2524;54.364;10.072;2023-03-25T01:09:54;9.90;99.90
5011;DHT22;2524;54.364;10.072;2023-03-25T01:12:20;10.00;99.90
5011;DHT22;2524;54.364;10.072;2023-03-25T01:14:45;9.90;99.90
5011;DHT22;2524;54.364;10.072;2023-03-25T01:17:11;10.00;99.90
5011;DHT22;2524;54.364;10.072;2023-03-25T01:19:37;9.90;99.90
5011;DHT22;2524;54.364;10.072;2023-03-25T01:22:02;9.90;99.90
5011;DHT22;2524;54.364;10.072;2023-03-25T01:24:28;9.90;99.90
5011;DHT22;2524;54.364;10.072;2023-03-25T01:26:53;9.90;99.90
5011;DHT22;2524;54.364;10.072;2023-03-25T01:29:20;10.00;99.90
5011;DHT22;2524;54.364;10.072;2023-03-25T01:31:46;9.90;99.90
5011;DHT22;2524;54.364;10.072;2023-03-25T01:34:12;9.90;99.90
5011;DHT22;2524;54.364;10.072;2023-03-25T01:36:39;9.90;99.90
5011;DHT22;2524;54.364;10.072;2023-03-25T01:39:07;9.90;99.90
5011;DHT22;2524;54.364;10.072;2023-03-25T01:41:35;9.90;99.90
5011;DHT22;2524;54.364;10.072;2023-03-25T01:44:06;9.90;99.90
5011;DHT22;2524;54.364;10.072;2023-03-25T01:46:32;9.80;99.90
5011;DHT22;2524;54.364;10.072;2023-03-25T01:49:00;9.80;99.90
5011;DHT22;2524;54.364;10.072;2023-03-25T01:51:31;9.90;99.90
5011;DHT22;2524;54.364;10.072;2023-03-25T01:53:58;9.80;99.90
5011;DHT22;2524;54.364;10.072;2023-03-25T01:56:27;10.00;99.90
5011;DHT22;2524;54.364;10.072;2023-03-25T01:59:01;9.80;99.90
5011;DHT22;2524;54.364;10.072;2023-03-25T02:01:27;9.90;99.90
5011;DHT22;2524;54.364;10.072;2023-03-25T02:03:54;9.80;99.90
5011;DHT22;2524;54.364;10.072;2023-03-25T02:06:33;9.80;99.90
5011;DHT22;2524;54.364;10.072;2023-03-25T02:09:02;9.70;99.90
5011;DHT22;2524;54.364;10.072;2023-03-25T02:11:34;9.80;99.90
5011;DHT22;2524;54.364;10.072;2023-03-25T02:14:05;9.80;99.90
5011;DHT22;2524;54.364;10.072;2023-03-25T02:25:24;9.70;99.90
5011;DHT22;2524;54.364;10.072;2023-03-25T02:28:29;9.70;99.90
5011;DHT22;2524;54.364;10.072;2023-03-25T02:31:36;9.70;99.90
5011;DHT22;2524;54.364;10.072;2023-03-25T02:34:47;9.70;99.90
5011;DHT22;2524;54.364;10.072;2023-03-25T02:37:29;9.70;99.90
5011;DHT22;2524;54.364;10.072;2023-03-25T02:40:06;9.70;99.90
5011;DHT22;2524;54.364;10.072;2023-03-25T02:45:12;9.70;99.90
5011;DHT22;2524;54.364;10.072;2023-03-25T02:47:45;9.60;99.90
5011;DHT22;2524;54.364;10.072;2023-03-25T02:50:49;9.70;99.90
5011;DHT22;2524;54.364;10.072;2023-03-25T02:53:22;9.60;99.90
5011;DHT22;2524;54.364;10.072;2023-03-25T02:55:53;9.60;99.90
5011;DHT22;2524;54.364;10.072;2023-03-25T02:58:22;9.60;99.90
5011;DHT22;2524;54.364;10.072;2023-03-25T03:00:49;9.70;99.90
5011;DHT22;2524;54.364;10.072;2023-03-25T03:03:16;9.60;99.90
5011;DHT22;2524;54.364;10.072;2023-03-25T03:05:45;9.60;99.90
5011;DHT22;2524;54.364;10.072;2023-03-25T03:11:27;9.50;99.90
5011;DHT22;2524;54.364;10.072;2023-03-25T03:24:59;9.50;99.90
5011;DHT22;2524;54.364;10.072;2023-03-25T03:32:53;9.50;99.90
5011;DHT22;2524;54.364;10.072;2023-03-25T03:35:36;9.40;99.90
5011;DHT22;2524;54.364;10.072;2023-03-25T03:38:07;9.50;99.90
5011;DHT22;2524;54.364;10.072;2023-03-25T03:40:37;9.50;99.90
5011;DHT22;2524;54.364;10.072;2023-03-25T03:43:25;9.50;99.90
5011;DHT22;2524;54.364;10.072;2023-03-25T03:45:55;9.50;99.90
5011;DHT22;2524;54.364;10.072;2023-03-25T03:48:30;9.50;99.90
5011;DHT22;2524;54.364;10.072;2023-03-25T03:51:02;9.40;99.90
5011;DHT22;2524;54.364;10.072;2023-03-25T03:53:35;9.40;99.90
5011;DHT22;2524;54.364;10.072;2023-03-25T03:58:39;9.40;99.90
5011;DHT22;2524;54.364;10.072;2023-03-25T04:06:31;9.40;99.90
5011;DHT22;2524;54.364;10.072;2023-03-25T04:09:05;9.30;99.90
5011;DHT22;2524;54.364;10.072;2023-03-25T04:11:42;9.30;99.90
5011;DHT22;2524;54.364;10.072;2023-03-25T04:14:09;9.30;99.90
5011;DHT22;2524;54.364;10.072;2023-03-25T04:16:35;9.30;99.90
5011;DHT22;2524;54.364;10.072;2023-03-25T04:19:03;9.40;99.90
5011;DHT22;2524;54.364;10.072;2023-03-25T04:21:30;9.30;99.90
5011;DHT22;2524;54.364;10.072;2023-03-25T04:23:55;9.30;99.90
5011;DHT22;2524;54.364;10.072;2023-03-25T04:26:27;9.30;99.90
5011;DHT22;2524;54.364;10.072;2023-03-25T04:28:55;9.30;99.90
5011;DHT22;2524;54.364;10.072;2023-03-25T04:31:23;9.30;99.90
5011;DHT22;2524;54.364;10.072;2023-03-25T04:33:50;9.30;99.90
5011;DHT22;2524;54.364;10.072;2023-03-25T04:36:16;9.40;99.90
5011;DHT22;2524;54.364;10.072;2023-03-25T04:38:43;9.30;99.90
5011;DHT22;2524;54.364;10.072;2023-03-25T04:41:12;9.40;99.90
5011;DHT22;2524;54.364;10.072;2023-03-25T04:43:38;9.10;99.90
5011;DHT22;2524;54.364;10.072;2023-03-25T04:46:04;9.30;99.90
5011;DHT22;2524;54.364;10.072;2023-03-25T04:48:33;9.20;99.90
5011;DHT22;2524;54.364;10.072;2023-03-25T04:51:00;9.30;99.90
5011;DHT22;2524;54.364;10.072;2023-03-25T04:53:28;9.20;99.90
5011;DHT22;2524;54.364;10.072;2023-03-25T04:55:54;9.20;99.90
5011;DHT22;2524;54.364;10.072;2023-03-25T04:58:20;9.20;99.90
5011;DHT22;2524;54.364;10.072;2023-03-25T05:00:49;9.20;99.90
5011;DHT22;2524;54.364;10.072;2023-03-25T05:03:16;9.10;99.90
5011;DHT22;2524;54.364;10.072;2023-03-25T05:05:42;9.10;99.90
5011;DHT22;2524;54.364;10.072;2023-03-25T05:08:08;9.00;99.90
5011;DHT22;2524;54.364;10.072;2023-03-25T05:10:34;9.00;99.90
5011;DHT22;2524;54.364;10.072;2023-03-25T05:13:05;8.80;99.90
5011;DHT22;2524;54.364;10.072;2023-03-25T05:15:31;9.00;99.90
5011;DHT22;2524;54.364;10.072;2023-03-25T05:18:00;9.00;99.90
5011;DHT22;2524;54.364;10.072;2023-03-25T05:20:26;8.90;99.90
5011;DHT22;2524;54.364;10.072;2023-03-25T05:22:52;9.00;99.90
5011;DHT22;2524;54.364;10.072;2023-03-25T05:25:18;8.90;99.90
5011;DHT22;2524;54.364;10.072;2023-03-25T05:27:46;9.00;99.90
5011;DHT22;2524;54.364;10.072;2023-03-25T05:30:12;8.80;99.90
5011;DHT22;2524;54.364;10.072;2023-03-25T05:32:38;9.00;99.90
5011;DHT22;2524;54.364;10.072;2023-03-25T05:35:05;8.70;99.90
5011;DHT22;2524;54.364;10.072;2023-03-25T05:37:31;8.90;99.90
5011;DHT22;2524;54.364;10.072;2023-03-25T05:39:57;8.80;99.90
5011;DHT22;2524;54.364;10.072;2023-03-25T05:42:23;9.00;99.90
5011;DHT22;2524;54.364;10.072;2023-03-25T05:44:50;8.90;99.90
5011;DHT22;2524;54.364;10.072;2023-03-25T05:47:21;8.90;99.90
5011;DHT22;2524;54.364;10.072;2023-03-25T05:49:48;8.90;99.90
5011;DHT22;2524;54.364;10.072;2023-03-25T05:52:15;8.90;99.90
5011;DHT22;2524;54.364;10.072;2023-03-25T05:54:44;8.70;99.90
5011;DHT22;2524;54.364;10.072;2023-03-25T05:57:11;8.90;99.90
5011;DHT22;2524;54.364;10.072;2023-03-25T05:59:38;8.80;99.90
5011;DHT22;2524;54.364;10.072;2023-03-25T06:02:06;8.90;99.90
5011;DHT22;2524;54.364;10.072;2023-03-25T06:04:34;9.00;99.90
5011;DHT22;2524;54.364;10.072;2023-03-25T06:07:05;8.90;99.90
5011;DHT22;2524;54.364;10.072;2023-03-25T06:09:39;8.90;99.90
5011;DHT22;2524;54.364;10.072;2023-03-25T06:12:14;8.90;99.90
5011;DHT22;2524;54.364;10.072;2023-03-25T06:14:41;8.90;99.90
5011;DHT22;2524;54.364;10.072;2023-03-25T06:17:14;8.90;99.90
5011;DHT22;2524;54.364;10.072;2023-03-25T06:19:40;8.70;99.90
5011;DHT22;2524;54.364;10.072;2023-03-25T06:22:07;8.90;99.90
5011;DHT22;2524;54.364;10.072;2023-03-25T06:24:34;8.90;99.90
5011;DHT22;2524;54.364;10.072;2023-03-25T06:27:01;8.90;99.90
5011;DHT22;2524;54.364;10.072;2023-03-25T06:29:27;9.00;99.90
5011;DHT22;2524;54.364;10.072;2023-03-25T06:31:52;8.80;99.90
5011;DHT22;2524;54.364;10.072;2023-03-25T06:34:18;8.80;99.90
5011;DHT22;2524;54.364;10.072;2023-03-25T06:36:43;8.70;99.90
5011;DHT22;2524;54.364;10.072;2023-03-25T06:39:10;8.90;99.90
5011;DHT22;2524;54.364;10.072;2023-03-25T06:41:35;8.90;99.90
5011;DHT22;2524;54.364;10.072;2023-03-25T06:44:02;8.70;99.90
5011;DHT22;2524;54.364;10.072;2023-03-25T06:46:28;8.60;99.90
5011;DHT22;2524;54.364;10.072;2023-03-25T06:48:53;8.80;99.90
5011;DHT22;2524;54.364;10.072;2023-03-25T06:51:19;8.80;99.90
5011;DHT22;2524;54.364;10.072;2023-03-25T06:53:47;8.80;99.90
5011;DHT22;2524;54.364;10.072;2023-03-25T06:56:12;8.80;99.90
5011;DHT22;2524;54.364;10.072;2023-03-25T06:58:38;8.80;99.90
5011;DHT22;2524;54.364;10.072;2023-03-25T07:01:06;8.60;99.90
5011;DHT22;2524;54.364;10.072;2023-03-25T07:03:33;8.70;99.90
5011;DHT22;2524;54.364;10.072;2023-03-25T07:05:59;8.70;99.90
5011;DHT22;2524;54.364;10.072;2023-03-25T07:08:24;8.70;99.90
5011;DHT22;2524;54.364;10.072;2023-03-25T07:10:50;8.70;99.90
5011;DHT22;2524;54.364;10.072;2023-03-25T07:13:16;8.90;99.90
5011;DHT22;2524;54.364;10.072;2023-03-25T07:15:42;9.00;99.90
5011;DHT22;2524;54.364;10.072;2023-03-25T07:18:07;8.90;99.90
5011;DHT22;2524;54.364;10.072;2023-03-25T07:20:33;8.90;99.90
5011;DHT22;2524;54.364;10.072;2023-03-25T07:22:58;8.90;99.90
5011;DHT22;2524;54.364;10.072;2023-03-25T07:25:24;8.90;99.90
5011;DHT22;2524;54.364;10.072;2023-03-25T07:27:50;8.70;99.90
5011;DHT22;2524;54.364;10.072;2023-03-25T07:30:16;8.90;99.90
5011;DHT22;2524;54.364;10.072;2023-03-25T07:32:43;8.70;99.90
5011;DHT22;2524;54.364;10.072;2023-03-25T07:35:10;9.00;99.90
5011;DHT22;2524;54.364;10.072;2023-03-25T07:37:35;8.80;99.90
5011;DHT22;2524;54.364;10.072;2023-03-25T07:40:01;9.00;99.90
5011;DHT22;2524;54.364;10.072;2023-03-25T07:42:27;9.00;99.90
5011;DHT22;2524;54.364;10.072;2023-03-25T07:44:52;8.80;99.90
5011;DHT22;2524;54.364;10.072;2023-03-25T07:47:18;8.80;99.90
5011;DHT22;2524;54.364;10.072;2023-03-25T07:49:43;9.20;99.90
5011;DHT22;2524;54.364;10.072;2023-03-25T07:52:11;8.80;99.90
5011;DHT22;2524;54.364;10.072;2023-03-25T07:54:36;9.00;99.90
5011;DHT22;2524;54.364;10.072;2023-03-25T07:57:02;8.80;99.90
5011;DHT22;2524;54.364;10.072;2023-03-25T07:59:28;9.00;99.90
5011;DHT22;2524;54.364;10.072;2023-03-25T08:01:53;8.80;99.90
5011;DHT22;2524;54.364;10.072;2023-03-25T08:04:19;9.00;99.90
5011;DHT22;2524;54.364;10.072;2023-03-25T08:06:45;9.00;99.90
5011;DHT22;2524;54.364;10.072;2023-03-25T08:09:10;9.00;99.90
5011;DHT22;2524;54.364;10.072;2023-03-25T08:11:36;9.00;99.90
5011;DHT22;2524;54.364;10.072;2023-03-25T08:14:02;9.10;99.90
5011;DHT22;2524;54.364;10.072;2023-03-25T08:16:28;8.90;99.90
5011;DHT22;2524;54.364;10.072;2023-03-25T08:18:53;9.10;99.90
5011;DHT22;2524;54.364;10.072;2023-03-25T08:21:19;9.10;99.90
5011;DHT22;2524;54.364;10.072;2023-03-25T08:23:50;9.20;99.90
5011;DHT22;2524;54.364;10.072;2023-03-25T08:26:16;9.10;99.90
5011;DHT22;2524;54.364;10.072;2023-03-25T08:28:42;9.20;99.90
5011;DHT22;2524;54.364;10.072;2023-03-25T08:31:07;9.00;99.90
5011;DHT22;2524;54.364;10.072;2023-03-25T08:33:34;9.40;99.90
5011;DHT22;2524;54.364;10.072;2023-03-25T08:36:05;9.30;99.90
5011;DHT22;2524;54.364;10.072;2023-03-25T08:38:31;9.40;99.90
5011;DHT22;2524;54.364;10.072;2023-03-25T08:40:57;9.50;99.90
5011;DHT22;2524;54.364;10.072;2023-03-25T08:43:24;9.50;99.90
5011;DHT22;2524;54.364;10.072;2023-03-25T08:45:50;9.50;99.90
5011;DHT22;2524;54.364;10.072;2023-03-25T08:48:16;9.60;99.90
5011;DHT22;2524;54.364;10.072;2023-03-25T08:50:41;9.40;99.90
5011;DHT22;2524;54.364;10.072;2023-03-25T08:53:09;9.60;99.90
5011;DHT22;2524;54.364;10.072;2023-03-25T08:55:35;9.80;99.90
5011;DHT22;2524;54.364;10.072;2023-03-25T08:58:05;9.80;99.90
5011;DHT22;2524;54.364;10.072;2023-03-25T09:00:33;9.60;99.90
5011;DHT22;2524;54.364;10.072;2023-03-25T09:02:59;9.70;99.90
5011;DHT22;2524;54.364;10.072;2023-03-25T09:05:25;9.60;99.90
5011;DHT22;2524;54.364;10.072;2023-03-25T09:07:51;9.70;99.90
5011;DHT22;2524;54.364;10.072;2023-03-25T09:10:17;9.70;99.90
5011;DHT22;2524;54.364;10.072;2023-03-25T09:12:43;9.70;99.90
5011;DHT22;2524;54.364;10.072;2023-03-25T09:15:09;9.50;99.90
5011;DHT22;2524;54.364;10.072;2023-03-25T09:17:36;9.70;99.90
5011;DHT22;2524;54.364;10.072;2023-03-25T09:20:02;9.70;99.90
5011;DHT22;2524;54.364;10.072;2023-03-25T09:22:28;9.60;99.90
5011;DHT22;2524;54.364;10.072;2023-03-25T09:24:54;9.80;99.90
5011;DHT22;2524;54.364;10.072;2023-03-25T09:27:19;9.70;99.90
5011;DHT22;2524;54.364;10.072;2023-03-25T09:29:45;9.70;99.90
5011;DHT22;2524;54.364;10.072;2023-03-25T09:32:10;9.60;99.90
5011;DHT22;2524;54.364;10.072;2023-03-25T09:34:36;9.60;99.90
5011;DHT22;2524;54.364;10.072;2023-03-25T09:37:03;9.60;99.90
5011;DHT22;2524;54.364;10.072;2023-03-25T09:39:29;9.50;99.90
5011;DHT22;2524;54.364;10.072;2023-03-25T09:44:43;9.70;99.90
5011;DHT22;2524;54.364;10.072;2023-03-25T09:47:13;9.60;99.90
5011;DHT22;2524;54.364;10.072;2023-03-25T09:49:41;9.80;99.90
5011;DHT22;2524;54.364;10.072;2023-03-25T09:52:17;9.60;99.90
5011;DHT22;2524;54.364;10.072;2023-03-25T09:54:48;9.80;99.90
5011;DHT22;2524;54.364;10.072;2023-03-25T09:57:29;9.80;99.90
5011;DHT22;2524;54.364;10.072;2023-03-25T09:59:56;9.90;99.90
5011;DHT22;2524;54.364;10.072;2023-03-25T10:11:15;9.90;99.90
5011;DHT22;2524;54.364;10.072;2023-03-25T10:22:54;9.70;99.90
5011;DHT22;2524;54.364;10.072;2023-03-25T10:25:27;9.60;99.90
5011;DHT22;2524;54.364;10.072;2023-03-25T10:27:55;9.70;99.90
5011;DHT22;2524;54.364;10.072;2023-03-25T10:30:25;9.70;99.90
5011;DHT22;2524;54.364;10.072;2023-03-25T10:32:56;9.50;99.90
5011;DHT22;2524;54.364;10.072;2023-03-25T10:35:31;9.60;99.90
5011;DHT22;2524;54.364;10.072;2023-03-25T10:38:06;9.70;99.90
5011;DHT22;2524;54.364;10.072;2023-03-25T10:40:42;9.50;99.90
5011;DHT22;2524;54.364;10.072;2023-03-25T10:43:23;9.70;99.90
5011;DHT22;2524;54.364;10.072;2023-03-25T10:45:53;9.60;99.90
5011;DHT22;2524;54.364;10.072;2023-03-25T10:48:27;9.60;99.90
5011;DHT22;2524;54.364;10.072;2023-03-25T10:51:08;9.60;99.90
5011;DHT22;2524;54.364;10.072;2023-03-25T10:53:35;9.40;99.90
5011;DHT22;2524;54.364;10.072;2023-03-25T10:56:03;9.60;99.90
5011;DHT22;2524;54.364;10.072;2023-03-25T10:58:30;9.60;99.90
5011;DHT22;2524;54.364;10.072;2023-03-25T11:00:56;9.60;99.90
5011;DHT22;2524;54.364;10.072;2023-03-25T11:03:30;9.60;99.90
5011;DHT22;2524;54.364;10.072;2023-03-25T11:05:58;9.40;99.90
5011;DHT22;2524;54.364;10.072;2023-03-25T11:08:23;9.50;99.90
5011;DHT22;2524;54.364;10.072;2023-03-25T11:10:51;9.40;99.90
5011;DHT22;2524;54.364;10.072;2023-03-25T11:13:29;9.70;99.90
5011;DHT22;2524;54.364;10.072;2023-03-25T11:15:58;9.50;99.90
5011;DHT22;2524;54.364;10.072;2023-03-25T11:18:37;9.50;99.90
5011;DHT22;2524;54.364;10.072;2023-03-25T11:21:11;9.50;99.90
5011;DHT22;2524;54.364;10.072;2023-03-25T11:23:46;9.50;99.90
5011;DHT22;2524;54.364;10.072;2023-03-25T11:26:27;9.60;99.90
5011;DHT22;2524;54.364;10.072;2023-03-25T11:29:14;9.50;99.90
5011;DHT22;2524;54.364;10.072;2023-03-25T11:31:41;9.50;99.90
5011;DHT22;2524;54.364;10.072;2023-03-25T11:34:20;9.40;99.90
5011;DHT22;2524;54.364;10.072;2023-03-25T11:39:34;9.50;99.90
5011;DHT22;2524;54.364;10.072;2023-03-25T11:44:54;9.70;99.90
5011;DHT22;2524;54.364;10.072;2023-03-25T11:47:29;9.80;99.90
5011;DHT22;2524;54.364;10.072;2023-03-25T11:49:55;10.10;99.90
5011;DHT22;2524;54.364;10.072;2023-03-25T11:52:24;10.20;99.90
5011;DHT22;2524;54.364;10.072;2023-03-25T11:54:55;10.20;99.90
5011;DHT22;2524;54.364;10.072;2023-03-25T11:57:36;10.20;99.90
5011;DHT22;2524;54.364;10.072;2023-03-25T12:00:28;10.20;99.90
5011;DHT22;2524;54.364;10.072;2023-03-25T12:03:15;10.20;99.90
5011;DHT22;2524;54.364;10.072;2023-03-25T12:05:59;10.10;99.90
5011;DHT22;2524;54.364;10.072;2023-03-25T12:08:29;10.10;99.90
5011;DHT22;2524;54.364;10.072;2023-03-25T12:11:34;10.00;99.90
5011;DHT22;2524;54.364;10.072;2023-03-25T12:14:22;9.90;99.90
5011;DHT22;2524;54.364;10.072;2023-03-25T12:17:04;9.90;99.90
5011;DHT22;2524;54.364;10.072;2023-03-25T12:22:36;9.80;99.90
5011;DHT22;2524;54.364;10.072;2023-03-25T12:25:24;9.70;99.90
5011;DHT22;2524;54.364;10.072;2023-03-25T12:28:05;9.80;99.90
5011;DHT22;2524;54.364;10.072;2023-03-25T12:31:26;9.80;99.90
5011;DHT22;2524;54.364;10.072;2023-03-25T12:33:49;9.60;99.90
5011;DHT22;2524;54.364;10.072;2023-03-25T12:39:29;9.70;99.90
5011;DHT22;2524;54.364;10.072;2023-03-25T12:42:00;9.70;99.90
5011;DHT22;2524;54.364;10.072;2023-03-25T12:47:38;9.70;99.90
5011;DHT22;2524;54.364;10.072;2023-03-25T12:50:31;9.60;99.90
5011;DHT22;2524;54.364;10.072;2023-03-25T12:55:46;9.60;99.90
5011;DHT22;2524;54.364;10.072;2023-03-25T13:01:47;9.50;99.90
5011;DHT22;2524;54.364;10.072;2023-03-25T13:07:11;9.50;99.90
5011;DHT22;2524;54.364;10.072;2023-03-25T13:10:02;9.50;99.90
5011;DHT22;2524;54.364;10.072;2023-03-25T13:12:35;9.60;99.90
5011;DHT22;2524;54.364;10.072;2023-03-25T13:15:23;9.60;99.90
5011;DHT22;2524;54.364;10.072;2023-03-25T13:18:09;9.80;99.90
5011;DHT22;2524;54.364;10.072;2023-03-25T13:20:50;9.80;99.90
5011;DHT22;2524;54.364;10.072;2023-03-25T13:23:21;10.10;99.90
5011;DHT22;2524;54.364;10.072;2023-03-25T13:26:18;10.20;99.90
5011;DHT22;2524;54.364;10.072;2023-03-25T13:29:06;10.20;99.90
5011;DHT22;2524;54.364;10.072;2023-03-25T13:31:39;10.10;99.90
5011;DHT22;2524;54.364;10.072;2023-03-25T13:34:38;10.40;99.90
5011;DHT22;2524;54.364;10.072;2023-03-25T13:40:06;10.20;99.90
5011;DHT22;2524;54.364;10.072;2023-03-25T13:45:21;10.00;99.90
5011;DHT22;2524;54.364;10.072;2023-03-25T13:50:28;9.90;99.90
5011;DHT22;2524;54.364;10.072;2023-03-25T13:53:04;9.90;99.90
5011;DHT22;2524;54.364;10.072;2023-03-25T13:55:36;9.80;99.90
5011;DHT22;2524;54.364;10.072;2023-03-25T14:06:43;9.80;99.90
5011;DHT22;2524;54.364;10.072;2023-03-25T14:09:41;9.80;99.90
5011;DHT22;2524;54.364;10.072;2023-03-25T14:12:26;9.80;99.90
5011;DHT22;2524;54.364;10.072;2023-03-25T14:15:09;9.80;99.90
5011;DHT22;2524;54.364;10.072;2023-03-25T14:17:38;9.80;99.90
5011;DHT22;2524;54.364;10.072;2023-03-25T14:20:06;9.80;99.90
5011;DHT22;2524;54.364;10.072;2023-03-25T14:22:41;9.90;99.90
5011;DHT22;2524;54.364;10.072;2023-03-25T14:25:27;10.00;99.90
5011;DHT22;2524;54.364;10.072;2023-03-25T14:27:53;10.00;99.90
5011;DHT22;2524;54.364;10.072;2023-03-25T14:30:21;9.90;99.90
5011;DHT22;2524;54.364;10.072;2023-03-25T14:32:48;10.00;99.90
5011;DHT22;2524;54.364;10.072;2023-03-25T14:48:42;10.00;99.90
5011;DHT22;2524;54.364;10.072;2023-03-25T14:51:21;10.00;99.90
5011;DHT22;2524;54.364;10.072;2023-03-25T14:54:12;10.00;99.90
5011;DHT22;2524;54.364;10.072;2023-03-25T14:57:04;10.00;99.90
5011;DHT22;2524;54.364;10.072;2023-03-25T14:59:36;9.90;99.90
5011;DHT22;2524;54.364;10.072;2023-03-25T15:02:12;9.90;99.90
5011;DHT22;2524;54.364;10.072;2023-03-25T15:04:40;9.80;99.90
5011;DHT22;2524;54.364;10.072;2023-03-25T15:07:17;9.90;99.90
5011;DHT22;2524;54.364;10.072;2023-03-25T15:09:50;9.80;99.90
5011;DHT22;2524;54.364;10.072;2023-03-25T15:12:20;9.90;99.90
5011;DHT22;2524;54.364;10.072;2023-03-25T15:14:49;10.10;99.90
5011;DHT22;2524;54.364;10.072;2023-03-25T15:17:41;9.80;99.90
5011;DHT22;2524;54.364;10.072;2023-03-25T15:22:35;9.80;99.90
5011;DHT22;2524;54.364;10.072;2023-03-25T15:25:02;9.80;99.90
5011;DHT22;2524;54.364;10.072;2023-03-25T15:28:02;9.80;99.90
5011;DHT22;2524;54.364;10.072;2023-03-25T15:53:28;9.70;99.90
5011;DHT22;2524;54.364;10.072;2023-03-25T15:56:01;9.70;99.90
5011;DHT22;2524;54.364;10.072;2023-03-25T15:58:35;9.70;99.90
5011;DHT22;2524;54.364;10.072;2023-03-25T16:01:33;9.70;99.90
5011;DHT22;2524;54.364;10.072;2023-03-25T16:03:59;9.60;99.90
5011;DHT22;2524;54.364;10.072;2023-03-25T16:06:26;9.60;99.90
5011;DHT22;2524;54.364;10.072;2023-03-25T16:08:54;9.70;99.90
5011;DHT22;2524;54.364;10.072;2023-03-25T16:11:23;9.60;99.90
5011;DHT22;2524;54.364;10.072;2023-03-25T16:14:09;9.60;99.90
5011;DHT22;2524;54.364;10.072;2023-03-25T16:16:39;9.50;99.90
5011;DHT22;2524;54.364;10.072;2023-03-25T16:19:10;9.30;99.90
5011;DHT22;2524;54.364;10.072;2023-03-25T16:21:36;9.30;99.90
5011;DHT22;2524;54.364;10.072;2023-03-25T16:24:05;9.50;99.90
5011;DHT22;2524;54.364;10.072;2023-03-25T16:26:34;9.40;99.90
5011;DHT22;2524;54.364;10.072;2023-03-25T16:29:18;9.50;99.90
5011;DHT22;2524;54.364;10.072;2023-03-25T16:31:57;9.40;99.90
5011;DHT22;2524;54.364;10.072;2023-03-25T16:34:23;9.40;99.90
5011;DHT22;2524;54.364;10.072;2023-03-25T16:36:51;9.10;99.90
5011;DHT22;2524;54.364;10.072;2023-03-25T16:39:17;9.30;99.90
5011;DHT22;2524;54.364;10.072;2023-03-25T16:41:48;9.30;99.90
5011;DHT22;2524;54.364;10.072;2023-03-25T16:44:21;9.20;99.90
5011;DHT22;2524;54.364;10.072;2023-03-25T16:46:48;9.30;99.90
5011;DHT22;2524;54.364;10.072;2023-03-25T16:49:26;9.30;99.90
5011;DHT22;2524;54.364;10.072;2023-03-25T16:51:55;9.00;99.90
5011;DHT22;2524;54.364;10.072;2023-03-25T16:54:30;9.10;99.90
5011;DHT22;2524;54.364;10.072;2023-03-25T16:56:56;8.90;99.90
5011;DHT22;2524;54.364;10.072;2023-03-25T16:59:44;9.00;99.90
5011;DHT22;2524;54.364;10.072;2023-03-25T17:02:24;9.00;99.90
5011;DHT22;2524;54.364;10.072;2023-03-25T17:04:50;9.00;99.90
5011;DHT22;2524;54.364;10.072;2023-03-25T17:07:23;8.70;99.90
5011;DHT22;2524;54.364;10.072;2023-03-25T17:09:53;8.80;99.90
5011;DHT22;2524;54.364;10.072;2023-03-25T17:12:20;8.60;99.90
5011;DHT22;2524;54.364;10.072;2023-03-25T17:14:48;8.80;99.90
5011;DHT22;2524;54.364;10.072;2023-03-25T17:19:49;8.70;99.90
5011;DHT22;2524;54.364;10.072;2023-03-25T17:25:34;8.50;99.90
5011;DHT22;2524;54.364;10.072;2023-03-25T17:28:26;8.50;99.90
5011;DHT22;2524;54.364;10.072;2023-03-25T17:30:53;8.50;99.90
5011;DHT22;2524;54.364;10.072;2023-03-25T17:35:53;8.50;99.90
5011;DHT22;2524;54.364;10.072;2023-03-25T17:38:40;8.50;99.90
5011;DHT22;2524;54.364;10.072;2023-03-25T17:41:10;8.70;99.90
5011;DHT22;2524;54.364;10.072;2023-03-25T17:43:43;8.60;99.90
5011;DHT22;2524;54.364;10.072;2023-03-25T17:46:09;8.40;99.90
5011;DHT22;2524;54.364;10.072;2023-03-25T17:48:34;8.70;99.90
5011;DHT22;2524;54.364;10.072;2023-03-25T17:51:01;8.60;99.90
5011;DHT22;2524;54.364;10.072;2023-03-25T17:53:27;8.50;99.90
5011;DHT22;2524;54.364;10.072;2023-03-25T17:55:53;8.40;99.90
5011;DHT22;2524;54.364;10.072;2023-03-25T17:58:21;8.40;99.90
5011;DHT22;2524;54.364;10.072;2023-03-25T18:00:48;8.60;99.90
5011;DHT22;2524;54.364;10.072;2023-03-25T18:03:20;8.30;99.90
5011;DHT22;2524;54.364;10.072;2023-03-25T18:05:48;8.50;99.90
5011;DHT22;2524;54.364;10.072;2023-03-25T18:08:18;8.60;99.90
5011;DHT22;2524;54.364;10.072;2023-03-25T18:10:43;8.60;99.90
5011;DHT22;2524;54.364;10.072;2023-03-25T18:13:09;8.60;99.90
5011;DHT22;2524;54.364;10.072;2023-03-25T18:15:35;8.40;99.90
5011;DHT22;2524;54.364;10.072;2023-03-25T18:18:03;8.30;99.90
5011;DHT22;2524;54.364;10.072;2023-03-25T18:20:32;8.50;99.90
5011;DHT22;2524;54.364;10.072;2023-03-25T18:22:58;8.50;99.90
5011;DHT22;2524;54.364;10.072;2023-03-25T18:25:25;8.50;99.90
5011;DHT22;2524;54.364;10.072;2023-03-25T18:27:53;8.60;99.90
5011;DHT22;2524;54.364;10.072;2023-03-25T18:30:43;8.30;99.90
5011;DHT22;2524;54.364;10.072;2023-03-25T18:33:09;8.40;99.90
5011;DHT22;2524;54.364;10.072;2023-03-25T18:35:35;8.50;99.90
5011;DHT22;2524;54.364;10.072;2023-03-25T18:38:00;8.40;99.90
5011;DHT22;2524;54.364;10.072;2023-03-25T18:40:30;8.40;99.90
5011;DHT22;2524;54.364;10.072;2023-03-25T18:42:57;8.40;99.90
5011;DHT22;2524;54.364;10.072;2023-03-25T18:45:24;8.50;99.90
5011;DHT22;2524;54.364;10.072;2023-03-25T18:47:50;8.60;99.90
5011;DHT22;2524;54.364;10.072;2023-03-25T18:50:27;8.60;99.90